Terminal Aerodrome Forecast
Issued by NWS

Home | Current Version | Previous Version | Text Only | Print | Product List | Glossary On
Versions: 1 2 3 4 5 6 7 8 9 10 11 12
000
FTUS43 KEAX 110525 AAA
TAFMKC
TAF AMD
KMKC 110525Z 1105/1206 16006KT P6SM BKN150
     FM110800 17011KT P6SM OVC030
     FM111200 17008KT 6SM -DZ OVC020
     FM111500 18007KT 5SM -DZ BR OVC008
     FM111800 27007KT P6SM OVC015
     FM112200 32008KT P6SM BKN050
     FM120000 33008KT P6SM SCT110=

USA.gov is the U.S. government's official web portal to all federal, state and local government web resources and services.